Time;durP1;ratioP1;P1;durP2;ratioP2;P2;SDS_P1;SDS_P2;PMS_P1;PMS_P2;Temp;Humidity;BMP_temperature;BMP_pressure;BME280_temperature;BME280_humidity;BME280_pressure;Samples;Min_cycle;Max_cycle;Signal;HPM_P1;HPM_P2
2021/01/15 17:50:54;;;;;;;17.90;3.70;;;14.70;70.50;;;;;;5111323;27;20404;-55
2021/01/15 17:53:22;;;;;;;11.88;4.15;;;14.50;70.10;;;;;;5103484;28;20024;-54
2021/01/15 17:55:49;;;;;;;12.23;3.80;;;14.70;70.20;;;;;;5091419;28;20452;-54
2021/01/15 17:58:16;;;;;;;13.18;4.00;;;14.90;70.00;;;;;;5091407;28;20032;-54
2021/01/15 18:00:42;;;;;;;14.10;3.38;;;15.10;69.70;;;;;;5091354;28;20085;-54
2021/01/15 18:03:09;;;;;;;9.23;2.88;;;15.30;69.30;;;;;;5090999;28;20413;-55
2021/01/15 18:05:37;;;;;;;10.02;3.20;;;15.60;68.90;;;;;;5091454;28;20047;-54
2021/01/15 18:08:05;;;;;;;9.23;2.97;;;15.90;68.40;;;;;;5091696;28;20454;-54
2021/01/15 18:10:34;;;;;;;7.80;2.80;;;16.10;67.80;;;;;;5090860;28;20399;-54
2021/01/15 18:13:05;;;;;;;11.07;3.03;;;16.40;67.20;;;;;;5091105;28;20072;-54
2021/01/15 18:15:32;;;;;;;5.50;2.70;;;16.70;66.60;;;;;;5091187;28;20054;-53
2021/01/15 18:17:59;;;;;;;9.40;2.55;;;16.90;66.00;;;;;;5090934;28;20032;-53
2021/01/15 18:20:26;;;;;;;8.02;2.67;;;17.20;65.30;;;;;;5091275;28;20098;-53
2021/01/15 18:22:53;;;;;;;6.43;2.20;;;17.50;64.80;;;;;;5091427;28;20032;-54
2021/01/15 18:25:20;;;;;;;9.02;2.55;;;17.80;64.10;;;;;;5090562;28;20108;-54
2021/01/15 18:27:55;;;;;;;12.20;2.60;;;18.10;63.50;;;;;;5085157;28;20024;-54
2021/01/15 18:30:22;;;;;;;8.15;2.40;;;18.40;62.80;;;;;;5078316;28;20553;-55
2021/01/15 18:32:50;;;;;;;8.77;2.63;;;18.60;62.40;;;;;;5070430;28;20025;-55
2021/01/15 18:35:17;;;;;;;8.75;2.45;;;18.90;61.90;;;;;;5100371;28;20024;-54
2021/01/15 18:37:45;;;;;;;7.30;2.42;;;19.10;61.20;;;;;;5109634;28;20032;-53
2021/01/15 18:40:13;;;;;;;11.05;2.72;;;19.40;60.70;;;;;;5090182;28;20376;-53
2021/01/15 18:42:41;;;;;;;5.93;2.03;;;19.60;60.30;;;;;;5090069;28;20384;-54
2021/01/15 18:45:09;;;;;;;6.53;2.20;;;19.90;59.80;;;;;;5090158;28;20497;-53
2021/01/15 18:47:51;;;;;;;8.10;2.35;;;20.10;59.20;;;;;;5070168;28;20024;-53
2021/01/15 18:50:21;;;;;;;5.50;1.98;;;20.30;58.40;;;;;;5070084;28;20136;-53
2021/01/15 18:52:48;;;;;;;8.13;2.08;;;20.50;58.00;;;;;;5072998;28;20059;-53
2021/01/15 18:55:15;;;;;;;10.68;2.60;;;20.70;57.60;;;;;;5073053;28;20025;-54
2021/01/15 18:57:57;;;;;;;10.77;2.40;;;20.90;57.20;;;;;;5068955;28;20063;-54
2021/01/15 19:00:25;;;;;;;13.98;2.60;;;21.00;56.90;;;;;;5085408;28;20507;-54
2021/01/15 19:02:53;;;;;;;8.13;2.20;;;21.20;56.50;;;;;;5076528;28;20033;-55
2021/01/15 19:05:21;;;;;;;9.23;2.40;;;21.30;56.10;;;;;;5076448;28;20063;-54
2021/01/15 19:07:49;;;;;;;9.88;2.20;;;21.40;55.80;;;;;;5076548;28;20468;-54
2021/01/15 19:10:16;;;;;;;7.93;2.17;;;21.50;55.50;;;;;;5076466;28;20107;-54
2021/01/15 19:12:44;;;;;;;8.77;1.70;;;21.60;55.20;;;;;;5076420;28;20024;-54
2021/01/15 19:15:12;;;;;;;11.85;2.38;;;21.70;55.00;;;;;;5076373;28;20025;-54
2021/01/15 19:17:39;;;;;;;10.55;2.10;;;21.80;54.90;;;;;;5076630;28;20025;-55
2021/01/15 19:20:07;;;;;;;13.30;2.33;;;21.90;54.70;;;;;;5075782;28;20127;-54
2021/01/15 19:22:34;;;;;;;6.53;2.05;;;22.00;54.30;;;;;;5075162;28;20039;-53
2021/01/15 19:25:00;;;;;;;18.58;2.97;;;22.10;54.10;;;;;;5075923;28;20033;-54
2021/01/15 19:27:27;;;;;;;10.63;2.92;;;22.30;54.10;;;;;;5075906;28;20020;-55
2021/01/15 19:29:53;;;;;;;7.07;2.30;;;22.40;54.10;;;;;;5076094;28;20090;-54
2021/01/15 19:32:20;;;;;;;11.45;2.30;;;22.50;53.70;;;;;;5076095;28;20032;-54
2021/01/15 19:34:46;;;;;;;15.40;2.90;;;22.70;53.60;;;;;;5075984;28;20027;-54
2021/01/15 19:37:13;;;;;;;7.82;2.33;;;22.80;53.30;;;;;;5075761;28;20477;-54
2021/01/15 19:39:40;;;;;;;13.40;2.80;;;23.00;53.10;;;;;;5076134;28;20032;-54
2021/01/15 19:42:08;;;;;;;9.45;2.22;;;23.10;52.80;;;;;;5076129;28;20033;-54
2021/01/15 19:44:35;;;;;;;11.57;2.08;;;23.30;52.60;;;;;;5075922;28;20028;-54
2021/01/15 19:47:02;;;;;;;10.85;2.15;;;23.40;52.30;;;;;;5075548;28;20502;-54
2021/01/15 19:49:28;;;;;;;10.95;2.20;;;23.60;52.00;;;;;;5075704;28;20132;-54
2021/01/15 19:51:55;;;;;;;8.40;2.10;;;23.70;51.60;;;;;;5075941;28;20032;-54
2021/01/15 19:54:21;;;;;;;6.10;2.00;;;23.90;51.30;;;;;;5075676;28;20027;-54
2021/01/15 19:56:48;;;;;;;6.95;1.83;;;24.00;51.00;;;;;;5075317;28;20499;-54
2021/01/15 19:59:14;;;;;;;7.05;2.30;;;24.20;50.70;;;;;;5075753;28;20115;-54
2021/01/15 20:01:41;;;;;;;7.97;2.17;;;24.40;50.50;;;;;;5075238;28;20434;-55
2021/01/15 20:04:07;;;;;;;4.38;2.05;;;24.50;50.20;;;;;;5075945;28;20035;-54
2021/01/15 20:06:36;;;;;;;6.97;2.00;;;24.60;50.00;;;;;;5075448;28;20189;-54
2021/01/15 20:09:04;;;;;;;6.28;1.70;;;24.70;49.60;;;;;;5075359;28;20027;-54
2021/01/15 20:11:31;;;;;;;6.80;2.13;;;24.90;49.50;;;;;;5075290;28;20025;-54
2021/01/15 20:13:58;;;;;;;7.82;1.67;;;24.90;49.10;;;;;;5074367;28;20456;-54
2021/01/15 20:16:28;;;;;;;10.00;1.98;;;25.10;49.10;;;;;;5075220;28;20028;-54
2021/01/15 20:18:55;;;;;;;7.32;1.88;;;25.20;48.70;;;;;;5075049;28;20040;-54
2021/01/15 20:21:22;;;;;;;5.85;2.10;;;25.20;48.70;;;;;;5075724;28;20052;-54
2021/01/15 20:23:48;;;;;;;12.32;1.88;;;25.30;48.40;;;;;;5074996;28;20499;-54
2021/01/15 20:26:18;;;;;;;5.30;1.73;;;25.40;48.40;;;;;;5074954;28;20020;-54
2021/01/15 20:28:47;;;;;;;4.53;1.77;;;25.40;48.10;;;;;;5074984;28;20075;-54
2021/01/15 20:31:17;;;;;;;4.93;1.70;;;25.50;48.20;;;;;;5074599;28;20360;-54
2021/01/15 20:33:44;;;;;;;6.90;1.75;;;25.50;48.00;;;;;;5074621;28;20404;-54
2021/01/15 20:36:11;;;;;;;4.78;1.83;;;25.50;47.80;;;;;;5074503;28;20507;-54
2021/01/15 20:38:38;;;;;;;4.07;1.52;;;25.50;47.80;;;;;;5074764;28;20025;-54
2021/01/15 20:41:04;;;;;;;4.07;1.50;;;25.50;47.80;;;;;;5074948;28;20032;-54
2021/01/15 20:43:31;;;;;;;5.38;1.52;;;25.50;47.70;;;;;;5074632;28;20071;-54
2021/01/15 20:45:57;;;;;;;4.32;1.55;;;25.50;47.70;;;;;;5075170;28;20032;-54
2021/01/15 20:48:24;;;;;;;7.88;1.85;;;25.50;47.70;;;;;;5074583;28;20537;-54
2021/01/15 20:50:50;;;;;;;5.47;1.70;;;25.50;47.70;;;;;;5075009;28;20048;-54
2021/01/15 20:53:17;;;;;;;2.97;1.40;;;25.50;47.60;;;;;;5074433;28;20024;-54
2021/01/15 20:55:47;;;;;;;5.53;1.38;;;25.40;47.50;;;;;;5074602;28;20029;-54
2021/01/15 20:58:13;;;;;;;2.83;1.30;;;25.50;47.70;;;;;;5073811;28;20067;-54
2021/01/15 21:00:40;;;;;;;10.00;3.08;;;25.40;47.70;;;;;;5070954;28;20117;-54
2021/01/15 21:03:08;;;;;;;9.93;2.38;;;25.40;47.80;;;;;;5064380;28;20111;-54
2021/01/15 21:05:38;;;;;;;6.55;1.95;;;25.30;47.80;;;;;;5074099;28;20070;-54
2021/01/15 21:08:05;;;;;;;5.15;2.13;;;25.30;47.90;;;;;;5073843;28;20024;-53
2021/01/15 21:10:31;;;;;;;7.20;1.90;;;25.20;48.00;;;;;;5074439;28;20033;-54
2021/01/15 21:12:58;;;;;;;8.45;2.00;;;25.20;48.10;;;;;;5074708;28;20024;-54
2021/01/15 21:15:24;;;;;;;5.60;1.77;;;25.20;48.20;;;;;;5074188;28;20078;-54
2021/01/15 21:17:53;;;;;;;10.00;1.77;;;25.10;48.30;;;;;;5074158;28;20025;-54
2021/01/15 21:20:22;;;;;;;5.95;1.77;;;25.10;48.30;;;;;;5073984;28;20028;-54
2021/01/15 21:22:49;;;;;;;3.78;1.60;;;25.10;48.40;;;;;;5074296;28;20040;-54
2021/01/15 21:25:20;;;;;;;6.45;1.70;;;25.10;48.50;;;;;;5074384;28;20146;-53
2021/01/15 21:27:50;;;;;;;4.93;1.60;;;25.10;48.60;;;;;;5074089;28;20020;-54
2021/01/15 21:30:18;;;;;;;3.60;1.58;;;25.10;48.60;;;;;;5074034;28;20029;-54
2021/01/15 21:32:46;;;;;;;5.47;1.80;;;25.10;48.70;;;;;;5074021;28;20032;-54
2021/01/15 21:35:15;;;;;;;5.95;2.15;;;25.00;48.50;;;;;;5074265;28;20103;-54
2021/01/15 21:37:45;;;;;;;3.50;1.77;;;25.00;49.30;;;;;;5073919;28;20021;-53
2021/01/15 21:40:12;;;;;;;8.18;1.85;;;25.00;48.70;;;;;;5073971;28;20029;-54
2021/01/15 21:42:43;;;;;;;3.80;1.60;;;25.00;48.70;;;;;;5073858;28;20028;-54
2021/01/15 21:45:10;;;;;;;6.30;1.88;;;25.00;48.70;;;;;;5074400;28;20048;-54
2021/01/15 21:47:40;;;;;;;3.47;1.67;;;25.00;48.80;;;;;;5073861;28;20035;-54
2021/01/15 21:50:09;;;;;;;5.60;1.73;;;24.90;48.80;;;;;;5073358;28;20090;-54
2021/01/15 21:52:36;;;;;;;4.25;1.52;;;24.90;48.80;;;;;;5073410;28;20028;-53
2021/01/15 21:55:04;;;;;;;3.30;1.60;;;24.90;48.90;;;;;;5073773;28;20074;-53
2021/01/15 21:57:30;;;;;;;6.15;1.67;;;24.90;49.00;;;;;;5073355;28;20013;-54
2021/01/15 21:59:57;;;;;;;4.97;1.75;;;24.90;49.00;;;;;;5073588;28;20036;-54
2021/01/15 22:02:23;;;;;;;5.97;1.95;;;24.90;49.00;;;;;;5073387;28;20029;-53
2021/01/15 22:04:50;;;;;;;53.08;36.65;;;24.80;48.90;;;;;;5073686;28;20464;-54
2021/01/15 22:07:16;;;;;;;13.60;7.13;;;24.80;49.10;;;;;;5073609;28;20031;-54
2021/01/15 22:09:43;;;;;;;8.68;4.35;;;24.80;49.20;;;;;;5073826;28;20472;-54
2021/01/15 22:12:09;;;;;;;11.38;4.32;;;24.70;49.20;;;;;;5073825;28;20029;-54
2021/01/15 22:14:36;;;;;;;13.77;5.63;;;24.70;49.20;;;;;;5073765;28;20074;-54
2021/01/15 22:17:02;;;;;;;11.30;5.65;;;24.60;49.30;;;;;;5073131;28;20029;-54
2021/01/15 22:19:29;;;;;;;11.02;5.60;;;24.60;49.30;;;;;;5073448;28;20025;-54
2021/01/15 22:21:55;;;;;;;11.55;5.35;;;24.60;49.50;;;;;;5073241;28;20029;-54
2021/01/15 22:24:22;;;;;;;11.65;5.30;;;24.60;49.60;;;;;;5073413;28;20078;-54
2021/01/15 22:26:52;;;;;;;10.77;5.10;;;24.50;49.80;;;;;;5073726;28;20104;-54
2021/01/15 22:29:18;;;;;;;14.43;5.63;;;24.60;49.90;;;;;;5068435;28;20025;-53
2021/01/15 22:31:49;;;;;;;17.95;6.85;;;24.50;50.00;;;;;;5069464;28;20467;-55
2021/01/15 22:34:18;;;;;;;8.48;5.05;;;24.60;50.40;;;;;;5073322;28;20024;-54
2021/01/15 22:36:46;;;;;;;14.23;5.38;;;24.60;50.70;;;;;;5075380;28;20109;-55
2021/01/15 22:39:13;;;;;;;13.15;5.53;;;24.70;50.70;;;;;;5076664;28;20083;-54
2021/01/15 22:41:40;;;;;;;9.18;5.00;;;24.80;50.80;;;;;;5076970;28;20571;-54
2021/01/15 22:44:07;;;;;;;12.48;5.28;;;24.80;50.70;;;;;;5076959;28;20024;-54
2021/01/15 22:46:33;;;;;;;15.65;4.68;;;24.90;50.60;;;;;;5076739;28;20064;-54
2021/01/15 22:49:00;;;;;;;14.10;5.20;;;25.00;50.50;;;;;;5076593;28;20480;-55
2021/01/15 22:51:26;;;;;;;9.20;4.80;;;25.10;50.40;;;;;;5076225;28;20032;-54
2021/01/15 22:53:53;;;;;;;11.98;4.93;;;25.20;50.40;;;;;;5076647;28;20059;-54
2021/01/15 22:56:20;;;;;;;9.50;4.85;;;25.20;50.10;;;;;;5075842;28;20031;-54
2021/01/15 22:58:46;;;;;;;12.02;4.88;;;25.40;50.20;;;;;;5076062;28;20094;-55
2021/01/15 23:01:13;;;;;;;10.38;4.82;;;25.40;49.90;;;;;;5076328;28;20040;-54
2021/01/15 23:03:41;;;;;;;8.77;4.97;;;25.40;49.80;;;;;;5076091;28;20067;-53
2021/01/15 23:06:07;;;;;;;14.77;5.20;;;25.50;49.70;;;;;;5076468;28;20375;-54
2021/01/15 23:08:35;;;;;;;13.00;4.93;;;25.50;49.60;;;;;;5076317;28;20028;-54
2021/01/15 23:11:01;;;;;;;15.07;5.32;;;25.50;49.40;;;;;;5076404;28;20024;-55
2021/01/15 23:13:29;;;;;;;9.93;4.93;;;25.60;49.50;;;;;;5076450;28;20463;-55
2021/01/15 23:15:57;;;;;;;9.25;4.85;;;25.60;49.40;;;;;;5076489;28;20035;-54
2021/01/15 23:18:27;;;;;;;11.07;5.07;;;25.60;49.30;;;;;;5076001;28;20024;-54
2021/01/15 23:20:56;;;;;;;14.75;5.32;;;25.70;49.20;;;;;;5074734;28;20032;-54
2021/01/15 23:23:23;;;;;;;10.27;5.13;;;25.60;49.20;;;;;;5076160;28;20094;-54
2021/01/15 23:25:50;;;;;;;12.70;5.00;;;25.60;49.20;;;;;;5075940;28;20035;-55
2021/01/15 23:28:17;;;;;;;11.25;5.07;;;25.60;49.20;;;;;;5076221;28;20025;-55
2021/01/15 23:30:48;;;;;;;12.63;5.30;;;25.60;49.20;;;;;;5075356;28;20111;-54
2021/01/15 23:33:17;;;;;;;10.48;4.93;;;25.60;49.20;;;;;;5076468;28;20037;-54
2021/01/15 23:35:44;;;;;;;9.98;4.93;;;25.50;49.20;;;;;;5076310;28;20033;-54
2021/01/15 23:38:11;;;;;;;14.18;5.40;;;25.60;49.30;;;;;;5075958;28;20051;-54
2021/01/15 23:40:38;;;;;;;10.23;4.93;;;25.60;49.30;;;;;;5076081;28;20078;-54
2021/01/15 23:43:07;;;;;;;8.82;4.72;;;25.50;49.30;;;;;;5074070;28;20044;-54
2021/01/15 23:45:37;;;;;;;11.70;5.18;;;25.50;49.30;;;;;;5075120;28;20033;-54
2021/01/15 23:48:07;;;;;;;12.27;5.28;;;25.60;49.40;;;;;;5071455;28;20024;-55
2021/01/15 23:50:44;;;;;;;11.88;4.85;;;25.60;49.40;;;;;;5075513;28;20049;-56
2021/01/15 23:53:12;;;;;;;12.38;5.32;;;25.60;49.50;;;;;;5075618;28;20082;-55
2021/01/15 23:55:39;;;;;;;11.82;5.15;;;25.70;49.50;;;;;;5075681;28;20024;-55
2021/01/15 23:58:07;;;;;;;8.35;5.47;;;25.70;49.60;;;;;;5075594;28;20025;-55
